• Join FlightAware (Why Join?)
  • Login
  • US Flag 
12:09AM EST


 

Airport Tracker/Info


-or-


 

Live Flight TrackerFlight Track Log ✈ AAY877 ✈ 10-Apr-2014 ✈ KRFD - KPIE

Flight Track Log - Related Links

Times and Time Zones

All times are in EDT time to prevent confusion due to time zone crossing. See the AAY877 flight status page for this flight to view local times or setup timezone preferences in your user account.

Time Position Orientation Groundspeed Altitude Reporting Facility
EDT Latitude Longitude Course Direction KTS MPH feet Rate Location/Type
06:23PM 41.9633 -89.0731 161° South 286 329 9,400  Level Chicago Center
06:24PM 41.8822 -89.0356 161° South 302 348 11,000 1,500 Climbing Chicago Center
06:25PM 41.7642 -88.9822 161° South 367 422 12,600 1,860 Climbing Chicago Center
06:26PM 41.6625 -88.9153 154° Southeast 404 465 14,900 2,100 Climbing Chicago Center
06:27PM 41.5531 -88.8278 149° Southeast 427 491 17,000 1,740 Climbing Chicago Center
06:28PM 41.4578 -88.7544 150° Southeast 432 497 18,500 1,860 Climbing Chicago Center
06:29PM 41.3539 -88.6717 149° Southeast 436 502 20,900 1,740 Climbing Chicago Center
06:30PM 41.1789 -88.5394 150° Southeast 483 556 23,000 1,320 Climbing Indianapolis Center
06:31PM 41.1211 -88.4889 147° Southeast 449 517 23,700 1,080 Climbing Chicago Center
06:32PM 41.0094 -88.4025 150° Southeast 462 532 24,800 900 Climbing Chicago Center
06:33PM 40.8964 -88.3131 149° Southeast 474 545 25,600 1,020 Climbing Chicago Center
06:34PM 40.7822 -88.2244 150° Southeast 475 547 27,000 1,560 Climbing Chicago Center
06:35PM 40.6483 -88.1197 149° Southeast 473 544 28,900 1,260 Climbing Chicago Center
06:37PM 40.4844 -87.9969 150° Southeast 464 534 30,300 900 Climbing Indianapolis Center
06:38PM 40.3725 -87.9119 150° Southeast 464 534 31,200 840 Climbing Indianapolis Center
06:39PM 40.2600 -87.8292 151° Southeast 464 534 32,100 720 Climbing Indianapolis Center
06:39PM 40.2022 -87.7808 147° Southeast 465 535 32,400 540 Climbing Chicago Center
06:40PM 40.0856 -87.6922 150° Southeast 465 535 33,000 240 Climbing Chicago Center
06:41PM 39.9742 -87.6089 150° Southeast 465 535 33,000  Level Chicago Center
06:42PM 39.8389 -87.5072 150° Southeast 474 545 33,000  Level Chicago Center
06:43PM 39.7250 -87.4250 151° Southeast 467 537 33,000  Level Chicago Center
06:44PM 39.6128 -87.3397 150° Southeast 470 541 33,000  Level Chicago Center
06:45PM 39.4989 -87.2572 151° Southeast 471 542 33,000  Level Chicago Center
06:46PM 39.3892 -87.1742 150° Southeast 464 534 33,000  Level Chicago Center
06:47PM 39.2556 -87.0736 150° Southeast 465 535 33,000  Level Chicago Center
06:49PM 39.0839 -86.9453 150° Southeast 463 533 33,000  Level Indianapolis Center
06:50PM 38.9717 -86.8625 150° Southeast 462 532 33,000  Level Indianapolis Center
06:51PM 38.8597 -86.7806 150° Southeast 462 532 33,000  Level Indianapolis Center
06:52PM 38.7489 -86.6983 150° Southeast 461 531 33,000  Level Indianapolis Center
06:53PM 38.6394 -86.6172 150° Southeast 456 525 33,000  Level Indianapolis Center
06:54PM 38.5283 -86.5358 150° Southeast 454 522 33,000  Level Indianapolis Center
06:55PM 38.4175 -86.4553 150° Southeast 454 522 33,000  Level Indianapolis Center
06:56PM 38.3058 -86.3756 151° Southeast 454 522 33,000  Level Indianapolis Center
06:57PM 38.1717 -86.2797 151° Southeast 454 522 33,000  Level Indianapolis Center
06:58PM 38.0603 -86.1986 150° Southeast 455 524 33,000  Level Indianapolis Center
06:59PM 37.9508 -86.1192 150° Southeast 455 524 33,000  Level Indianapolis Center
07:00PM 37.8397 -86.0389 150° Southeast 455 524 33,000  Level Indianapolis Center
07:01PM 37.7283 -85.9589 150° Southeast 455 524 33,000  Level Indianapolis Center
07:02PM 37.6167 -85.8806 151° Southeast 456 525 33,000  Level Indianapolis Center
07:03PM 37.5033 -85.8039 152° Southeast 456 525 33,000  Level Indianapolis Center
07:05PM 37.3925 -85.7236 150° Southeast 457 526 33,000  Level Indianapolis Center
07:07PM 37.1478 -85.5517 151° Southeast 458 527 33,000  Level Indianapolis Center
07:08PM 37.0256 -85.4669 151° Southeast 459 528 33,000  Level Indianapolis Center
07:09PM 36.9133 -85.3881 151° Southeast 459 528 33,000  Level Indianapolis Center
07:10PM 36.8890 -85.3624 151° Southeast  Level FlightAware Approximate
07:10PM 36.8000 -85.3106 151° Southeast 461 531 33,000  Level Indianapolis Center
07:12PM 36.5411 -85.1653 156° South 467 537 33,000  Level Atlanta Center
07:13PM 36.4469 -85.1378 167° South 447 514 33,000  Level Indianapolis Center
07:14PM 36.2997 -85.1011 169° South 447 514 33,000  Level Indianapolis Center
07:15PM 36.1786 -85.0703 168° South 447 514 33,000  Level Indianapolis Center
07:16PM 36.0586 -85.0403 169° South 446 513 33,000  Level Indianapolis Center
07:17PM 35.9375 -85.0419 181° South 437 503 33,000  Level Indianapolis Center
07:18PM 35.8164 -85.0528 184° South 438 504 33,000  Level Atlanta Center
07:19PM 35.6953 -85.0539 180° South 438 504 33,000  Level Atlanta Center
07:20PM 35.5764 -85.0600 182° South 438 504 33,000  Level Atlanta Center
07:21PM 35.4658 -85.0639 182° South 438 504 33,000  Level Atlanta Center
07:23PM 35.2211 -85.1192 190° South 438 504 33,000  Level Atlanta Center
07:24PM 35.1042 -85.1508 192° South 433 498 33,000  Level Atlanta Center
07:27PM 34.7431 -85.1561 163° South 436 502 33,000  Level Atlanta Center
07:28PM 34.6367 -85.1294 168° South 442 509 33,000  Level Atlanta Center
07:29PM 34.5158 -85.1078 172° South 442 509 33,000  Level Atlanta Center
07:30PM 34.3931 -85.0833 171° South 447 514 33,000  Level Atlanta Center
07:31PM 34.2681 -85.0592 171° South 447 514 33,000  Level Atlanta Center
07:32PM 34.1347 -85.0353 172° South 447 514 33,000  Level Atlanta Center
07:33PM 34.0094 -85.0111 171° South 447 514 33,000  Level Atlanta Center
07:34PM 33.8844 -84.9897 172° South 447 514 33,000  Level Atlanta Center
07:35PM 33.7594 -84.9658 171° South 452 520 33,000  Level Atlanta Center
07:36PM 33.6344 -84.9419 171° South 452 520 33,000  Level Atlanta Center
07:38PM 33.3883 -84.8947 171° South 452 520 33,000  Level Atlanta Center
07:39PM 33.2633 -84.8711 171° South 452 520 33,000  Level Atlanta Center
07:40PM 33.1403 -84.8475 171° South 452 520 33,000  Level Atlanta Center
07:41PM 33.0172 -84.8267 172° South 452 520 33,000  Level Atlanta Center
07:42PM 32.8944 -84.8033 171° South 447 514 33,000  Level Atlanta Center
07:43PM 32.7817 -84.7800 170° South 447 514 33,000  Level Atlanta Center
07:44PM 32.6589 -84.7567 171° South 447 514 33,000  Level Atlanta Center
07:45PM 32.5358 -84.7336 171° South 447 514 33,000  Level Atlanta Center
07:46PM 32.4086 -84.7131 172° South 452 520 33,000  Level Atlanta Center
07:47PM 32.2856 -84.6875 170° South 452 520 33,000  Level Atlanta Center
07:48PM 32.1603 -84.6644 171° South 452 520 33,000  Level Atlanta Center
07:50PM 31.8897 -84.6128 171° South 454 522 33,000  Level Jacksonville Center
07:51PM 31.7669 -84.5908 171° South 449 517 33,000  Level Jacksonville Center
07:52PM 31.6439 -84.5692 171° South 449 517 33,000  Level Jacksonville Center
07:53PM 31.5314 -84.5475 171° South 449 517 33,000  Level Jacksonville Center
07:54PM 31.4064 -84.5258 172° South 449 517 33,000  Level Jacksonville Center
07:55PM 31.2856 -84.5044 171° South 449 517 33,000  Level Jacksonville Center
07:57PM 31.1145 -84.4324 160° South  Level FlightAware Approximate
07:57PM 31.0400 -84.4492 160° South 449 517 33,000  Level Jacksonville Center
07:58PM 30.9217 -84.3939 158° South 449 517 33,000  Level Jacksonville Center
07:59PM 30.8053 -84.3414 159° South 456 525 33,000  Level Jacksonville Center
08:00PM 30.6869 -84.2864 158° South 461 531 33,000  Level Jacksonville Center
08:01PM 30.5706 -84.2342 159° South 461 531 33,000 -60 Level Jacksonville Center
08:02PM 30.4397 -84.1767 159° South 456 525 32,900  Descending Jacksonville Center
08:03PM 30.3378 -84.1272 157° South 451 519 33,000  Climbing Jacksonville Center
08:04PM 30.2172 -84.0753 160° South 451 519 33,000 -60 Level Jacksonville Center
08:05PM 30.0986 -84.0211 158° South 451 519 32,900 -60 Descending Jacksonville Center
08:06PM 29.9822 -83.9692 159° South 451 519 32,900  Level Jacksonville Center
08:07PM 29.8511 -83.9081 158° South 451 519 32,900  Level Jacksonville Center
08:08PM 29.7389 -83.8422 153° Southeast 458 527 32,900  Level Jacksonville Center
08:09PM 29.6289 -83.7719 151° Southeast 458 527 33,000  Climbing Jacksonville Center
08:10PM 29.5186 -83.6992 150° Southeast 448 516 33,000 -480 Level Jacksonville Center
08:11PM 29.4064 -83.6292 151° Southeast 453 521 32,100 -2,160 Descending Jacksonville Center
08:13PM 29.1794 -83.4847 151° Southeast 458 527 26,600 -2,640 Descending Jacksonville Center
08:14PM 29.0692 -83.4128 150° Southeast 458 527 24,300 -2,100 Descending Jacksonville Center
08:15PM 28.9589 -83.3433 151° Southeast 453 521 22,400 -1,620 Descending Jacksonville Center
08:16PM 28.8569 -83.2767 150° Southeast 448 516 21,100 -1,620 Descending Jacksonville Center
08:17PM 28.7569 -83.2122 151° Southeast 430 495 19,200 -1,920 Descending Jacksonville Center
08:18PM 28.6567 -83.1506 152° Southeast 419 482 17,300 -1,920 Descending Jacksonville Center
08:19PM 28.5833 -83.1000 149° Southeast 395 455 15,900 -1,740 Descending Tampa TRACON
08:20PM 28.4500 -83.0167 151° Southeast 389 448 13,600 -1,680 Descending Tampa TRACON
08:21PM 28.3667 -82.9667 152° Southeast 382 440 12,100 -1,440 Descending Tampa TRACON
08:22PM 28.2675 -82.9106 154° Southeast 370 426 10,600 -1,320 Descending Miami Center
08:23PM 28.1928 -82.8619 150° Southeast 328 377 9,300 -1,560 Descending Miami Center
08:24PM 28.1228 -82.8211 153° Southeast 294 338 7,500 -1,680 Descending Miami Center
08:25PM 28.0500 -82.8167 177° South 260 299 6,300 -1,620 Descending Tampa TRACON
08:26PM 27.9833 -82.8167 180° South 257 296 4,800 -1,680 Descending Tampa TRACON
08:27PM 27.9167 -82.8167 180° South 258 297 3,200 -1,080 Descending Tampa TRACON
08:28PM 27.8500 -82.8000 168° South 236 272 2,500 -720 Descending Tampa TRACON
08:29PM 27.8333 -82.7333 106° East 191 220 1,700 -780 Descending Tampa TRACON
08:30PM 27.8333 -82.6833 90° East 151 174 1,200 -660 Descending Tampa TRACON
08:31PM 27.8833 -82.6833 360° North 129 148 400 -780 Descending Tampa TRACON